Pulteney, New York
Current Conditions -  °F | °C
As of 11:53 AM on Friday 31 Oct 2014 (Local Time) from KPEO Reporting Station
Overcast Overcast  
Wind Chill: 45°   Ceiling: 6000
Heat Index: 48°   Visibility: 10mi
Dew Point: 35°   Wind: 6mph
Humidity: 61%   Direction: 160°SSE
Pressure: 29.96"   Gusts: NA
Location:  42.52°N, 77.17°W
Report Text: KPEO 311553Z AUTO 16005KT 10SM SCT043 OVC060 09/02 A2996 RMK AO2 SLP152 T00890017
Loading
Personal Weather Stations






























Interactive Weather Map
Tropical Storm Tracking
New forecast layout! Learn more

10-Day Weather Forecast

Advertisements
Track Severe Weather on mobile